Flight Track Log - Related Links

Times and Time Zones

All times are in EDT time to prevent confusion due to time zone crossing. See the ADB2894 flight status page for this flight to view local times or setup timezone preferences in your user account.

Time Position Orientation Groundspeed Altitude Reporting Facility
EDT Latitude Longitude Course Direction KTS MPH feet Rate Location/Type
Fri 03:19:10 PM 39.9000 -82.9333 270° West 264 304 5,900  Level
Fri 03:20:10 PM 39.9000 -83.0333 298° West 264 304 7,800 1,550 Climbing
Fri 03:21:10 PM 39.9333 -83.1167 294° West 269 310 9,000 950 Climbing
Fri 03:22:10 PM 39.9667 -83.2167 303° West 275 316 9,700 1,250 Climbing
Fri 03:23:10 PM 40.0167 -83.3167 294° West 296 341 11,500 1,500 Climbing
Fri 03:24:10 PM 40.0500 -83.4167 294° West 308 354 12,700 1,250 Climbing
Fri 03:25:10 PM 40.0833 -83.5167 303° West 313 360 14,000 1,250 Climbing
Fri 03:26:10 PM 40.1333 -83.6167 311° West 321 369 15,200 1,200 Climbing
Fri 03:27:10 PM 40.2000 -83.7167 308° West 321 369 16,400 1,100 Climbing
Fri 03:28:10 PM 40.2500 -83.8000 303° West 326 375 17,400 950 Climbing
Fri 03:29:10 PM 40.3000 -83.9000 311° West 336 387 18,300 950 Climbing
Fri 03:30:10 PM 40.3667 -84.0000 303° West 336 387 19,300 950 Climbing
Fri 03:31:10 PM 40.4167 -84.1000 299° West 341 392 20,200 950 Climbing
Fri 03:32:10 PM 40.4667 -84.2167 311° West 348 400 21,200 950 Climbing
Fri 03:33:10 PM 40.5333 -84.3167 300° West 354 407 22,100 820 Climbing
Fri 03:34:29 PM 40.6000 -84.4667 303° West 343 395 23,100 820 Climbing
Fri 03:35:29 PM 40.6500 -84.5667 307° West 343 395 24,000 800 Climbing
Fri 03:36:29 PM 40.7167 -84.6833 303° West 358 412 24,700 750 Climbing
Fri 03:37:29 PM 40.7667 -84.7833 307° West 358 412 25,500 1,150 Climbing
Fri 03:38:29 PM 40.8333 -84.9000 304° West 363 418 27,000 1,250 Climbing
Fri 03:39:29 PM 40.8833 -85.0000 304° West 358 412 28,000 3,500 Climbing
Fri 03:40:29 PM 40.9333 -85.1000 300° West 352 405 34,000 3,000 Climbing
Fri 03:41:29 PM 40.9833 -85.2167 278° West 352 405 34,000  Level
Fri 03:42:29 PM 41.0000 -85.3667 278° West 362 417 34,000  Level
Fri 03:43:29 PM 41.0167 -85.5167 278° West 407 468 34,000  Level
Fri 03:44:29 PM 41.0333 -85.6667 286° West 418 481 34,000  Level
Fri 03:45:29 PM 41.0667 -85.8167 278° West 423 487 34,000 -2,350 Level
Fri 03:46:29 PM 41.0833 -85.9667 278° West 429 494 29,300 -1,700 Descending
Fri 03:47:29 PM 41.1000 -86.1167 278° West 424 488 30,600 1,300 Climbing
Fri 03:48:29 PM 41.1167 -86.2667 279° West 419 482 31,900 1,150 Climbing
Fri 03:49:29 PM 41.1333 -86.4000 279° West 396 456 32,900 800 Climbing
Fri 03:50:29 PM 41.1500 -86.5333 279° West 378 435 33,500 550 Climbing
Fri 03:51:29 PM 41.1667 -86.6667 288° West 372 428 34,000 250 Climbing
Fri 03:52:29 PM 41.2000 -86.8000 288° West 377 434 34,000  Level
Fri 03:53:29 PM 41.2333 -86.9333 288° West 377 434 34,000  Level
Fri 03:54:29 PM 41.2667 -87.0667 287° West 383 441 34,000  Level
Fri 03:55:29 PM 41.3000 -87.2167 287° West 395 455 34,000  Level
Fri 03:56:29 PM 41.3333 -87.3667 289° West 402 463 34,000  Level
Fri 03:57:29 PM 41.3667 -87.5000 285° West 407 468 34,000  Level
Fri 03:58:29 PM 41.4000 -87.6667 288° West 413 475 34,000  Level
Fri 03:59:29 PM 41.4333 -87.8000 287° West 413 475 34,000  Level
Fri 04:00:29 PM 41.4667 -87.9500 287° West 413 475 34,000  Level
Fri 04:01:29 PM 41.5000 -88.1000 285° West 418 481 34,000  Level
Fri 04:02:29 PM 41.5333 -88.2667 307° West 431 496 34,000  Level
Fri 04:03:30 PM 41.6000 -88.3833 314° West 397 457 34,000  Level
Fri 04:04:30 PM 41.6833 -88.5000 318° Northwest 409 471 34,000  Level
Fri 04:05:30 PM 41.7667 -88.6000 318° Northwest 409 471 34,000  Level
Fri 04:06:30 PM 41.8500 -88.7000 314° West 409 471 34,000  Level
Fri 04:07:29 PM 41.9333 -88.8167 318° Northwest 409 471 34,000  Level
Fri 04:08:29 PM 42.0167 -88.9167 318° Northwest 409 471 34,000  Level
Fri 04:09:29 PM 42.1000 -89.0167 314° West 398 458 34,000  Level
Fri 04:10:29 PM 42.1833 -89.1333 318° Northwest 403 464 34,000  Level
Fri 04:11:29 PM 42.2667 -89.2333 314° West 411 473 34,000  Level
Fri 04:12:29 PM 42.3500 -89.3500 314° West 411 473 34,000  Level
Fri 04:13:29 PM 42.4333 -89.4667 319° Northwest 411 473 34,000  Level
Fri 04:14:29 PM 42.5167 -89.5667 314° West 411 473 34,000  Level
Fri 04:15:29 PM 42.6000 -89.6833 314° West 411 473 34,000  Level
Fri 04:16:29 PM 42.6833 -89.8000 319° Northwest 411 473 34,000  Level
Fri 04:17:29 PM 42.7667 -89.9000 314° West 411 473 34,000  Level
Fri 04:18:29 PM 42.8500 -90.0167 360° North 411 473 34,000  Level
Fri 04:18:30 PM 42.8500 -90.0167 314° West 412 474 34,000  Level
Fri 04:19:29 PM 42.9333 -90.1333 360° North 411 473 34,000  Level
Fri 04:19:30 PM 42.9333 -90.1333 319° Northwest 417 480 34,000  Level
Fri 04:20:30 PM 43.0167 -90.2333 314° West 411 473 34,000  Level
Fri 04:21:29 PM 43.1000 -90.3500 360° North 417 480 34,000  Level
Fri 04:21:30 PM 43.1000 -90.3500 314° West 419 482 34,000  Level
Fri 04:22:29 PM 43.1833 -90.4667 360° North 417 480 34,000  Level
Fri 04:22:30 PM 43.1833 -90.4667 315° West 419 482 34,000  Level
Fri 04:23:29 PM 43.2667 -90.5833 360° North 417 480 34,000  Level
Fri 04:23:30 PM 43.2667 -90.5833 314° West 419 482 34,000  Level
Fri 04:24:30 PM 43.3500 -90.7000 319° Northwest 419 482 34,000  Level
Fri 04:25:30 PM 43.4333 -90.8000 315° West 419 482 34,000  Level
Fri 04:26:30 PM 43.5167 -90.9167 315° West 428 493 34,000  Level
Fri 04:27:30 PM 43.6000 -91.0333 305° West 428 493 34,000  Level
Fri 04:28:30 PM 43.6667 -91.1667 286° West 423 487 34,000  Level
Fri 04:29:30 PM 43.7000 -91.3333 286° West 418 481 34,000  Level
Fri 04:30:30 PM 43.7333 -91.5000 279° West 423 487 34,000  Level
Fri 04:31:30 PM 43.7500 -91.6500 286° West 428 493 34,000  Level
Fri 04:32:30 PM 43.7833 -91.8167 287° West 428 493 34,000  Level
Fri 04:33:30 PM 43.8167 -91.9667 286° West 428 493 34,000  Level
Fri 04:34:30 PM 43.8500 -92.1333 287° West 428 493 34,000  Level
Fri 04:35:30 PM 43.8833 -92.2833 286° West 421 484 34,000  Level
Fri 04:36:30 PM 43.9167 -92.4500 287° West 421 484 34,000  Level
Fri 04:37:30 PM 43.9500 -92.6000 295° West 428 493 34,000  Level
Fri 04:38:30 PM 44.0000 -92.7500 278° West 428 493 34,000  Level
Fri 04:39:30 PM 44.0167 -92.9167 286° West 428 493 34,000  Level
Fri 04:40:30 PM 44.0500 -93.0833 287° West 428 493 34,000  Level
Fri 04:41:30 PM 44.0833 -93.2333 286° West 434 499 34,000  Level
Fri 04:42:30 PM 44.1167 -93.4000 287° West 434 499 34,000  Level
Fri 04:43:30 PM 44.1500 -93.5500 286° West 434 499 34,000  Level
Fri 04:44:30 PM 44.1833 -93.7167 286° West 434 499 34,000  Level
Fri 04:45:30 PM 44.2167 -93.8833 287° West 434 499 34,000  Level
Fri 04:46:30 PM 44.2500 -94.0333 286° West 434 499 34,000  Level
Fri 04:47:30 PM 44.2833 -94.2000 286° West 434 499 34,000  Level
Fri 04:48:30 PM 44.3167 -94.3667 287° West 434 499 34,000  Level
Fri 04:49:30 PM 44.3500 -94.5167 286° West 440 506 34,000  Level
Fri 04:50:30 PM 44.3833 -94.6833 287° West 432 497 34,000  Level
Fri 04:51:30 PM 44.4167 -94.8333 286° West 432 497 34,000  Level
Fri 04:52:30 PM 44.4500 -95.0000 286° West 432 497 34,000  Level
Fri 04:53:30 PM 44.4833 -95.1667 295° West 437 503 34,000  Level
Fri 04:54:30 PM 44.5333 -95.3167 295° West 437 503 34,000  Level
Fri 04:55:30 PM 44.5833 -95.4667 287° West 432 497 34,000  Level
Fri 04:56:30 PM 44.6167 -95.6167 293° West 432 497 34,000  Level
Fri 04:57:30 PM 44.6667 -95.7833 295° West 432 497 34,000  Level
Fri 04:58:30 PM 44.7167 -95.9333 295° West 432 497 34,000  Level
Fri 04:59:30 PM 44.7667 -96.0833 295° West 432 497 34,000  Level
Fri 05:00:30 PM 44.8167 -96.2333 286° West 432 497 34,000  Level
Fri 05:01:30 PM 44.8500 -96.4000 295° West 432 497 34,000  Level
Fri 05:02:30 PM 44.9000 -96.5500 295° West 432 497 34,000  Level
Fri 05:03:30 PM 44.9500 -96.7000 293° West 439 505 34,000  Level
Fri 05:04:30 PM 45.0000 -96.8667 287° West 439 505 34,000  Level
Fri 05:05:30 PM 45.0333 -97.0167 293° West 439 505 34,000  Level
Fri 05:06:30 PM 45.0833 -97.1833 295° West 439 505 34,000  Level
Fri 05:07:30 PM 45.1333 -97.3333 286° West 439 505 34,000  Level
Fri 05:08:30 PM 45.1667 -97.5000 295° West 439 505 34,000  Level
Fri 05:09:30 PM 45.2167 -97.6500 295° West 429 494 34,000  Level
Fri 05:10:30 PM 45.2667 -97.8000 286° West 424 488 34,000  Level
Fri 05:11:30 PM 45.3000 -97.9667 295° West 424 488 34,000  Level
Fri 05:12:30 PM 45.3500 -98.1167 295° West 429 494 34,000  Level
Fri 05:13:30 PM 45.4000 -98.2667 286° West 429 494 34,000  Level
Fri 05:14:30 PM 45.4333 -98.4333 295° West 423 487 34,000  Level
Fri 05:15:30 PM 45.4833 -98.5833 302° West 423 487 34,000  Level
Fri 05:16:30 PM 45.5500 -98.7333 296° West 428 493 34,000  Level
Fri 05:17:30 PM 45.6000 -98.8833 296° West 434 499 34,000  Level
Fri 05:18:30 PM 45.6500 -99.0333 296° West 434 499 34,000  Level
Fri 05:19:30 PM 45.7000 -99.1833 296° West 434 499 34,000  Level
Fri 05:20:30 PM 45.7500 -99.3333 296° West 434 499 34,000  Level
Fri 05:21:30 PM 45.8000 -99.4833 300° West 434 499 34,000  Level
Fri 05:22:30 PM 45.8667 -99.6500 296° West 429 494 34,000  Level
Fri 05:23:30 PM 45.9167 -99.8000 296° West 429 494 34,000  Level
Fri 05:24:30 PM 45.9667 -99.9500 296° West 429 494 34,000  Level
Fri 05:25:30 PM 46.0167 -100.1000 293° West 429 494 34,000  Level
Fri 05:26:30 PM 46.0667 -100.2670 296° West 429 494 34,000  Level
Fri 05:27:30 PM 46.1167 -100.4170 296° West 429 494 34,000  Level
Fri 05:28:30 PM 46.1667 -100.5670 294° West 429 494 34,000  Level
Fri 05:29:30 PM 46.2167 -100.7330 296° West 429 494 34,000  Level
Fri 05:30:30 PM 46.2667 -100.8830 296° West 434 499 34,000  Level
Fri 05:31:30 PM 46.3167 -101.0330 294° West 434 499 34,000  Level
Fri 05:32:30 PM 46.3667 -101.2000 296° West 434 499 34,000  Level
Fri 05:33:30 PM 46.4167 -101.3500 294° West 434 499 34,000  Level
Fri 05:34:30 PM 46.4667 -101.5170 296° West 434 499 34,000  Level
Fri 05:35:30 PM 46.5167 -101.6670 296° West 434 499 34,000  Level
Fri 05:36:30 PM 46.5667 -101.8170 296° West 428 493 34,000  Level
Fri 05:37:30 PM 46.6167 -101.9670 296° West 428 493 34,000  Level
Fri 05:38:30 PM 46.6667 -102.1170 294° West 428 493 34,000  Level
Fri 05:39:30 PM 46.7167 -102.2830 293° West 428 493 34,000  Level
Fri 05:40:16 PM 46.7500 -102.4000 294° West 426 490 34,000  Level
Fri 05:41:16 PM 46.8000 -102.5670 296° West 426 490 34,000  Level
Fri 05:42:16 PM 46.8500 -102.7170 286° West 426 490 34,000  Level
Fri 05:43:16 PM 46.8833 -102.8830 278° West 415 478 34,000  Level
Fri 05:44:16 PM 46.9000 -103.0500 278° West 415 478 34,000  Level
Fri 05:45:16 PM 46.9167 -103.2170 278° West 420 483 34,000  Level
Fri 05:46:17 PM 46.9333 -103.3830 278° West 420 483 34,000  Level
Fri 05:47:16 PM 46.9500 -103.5670 278° West 420 483 34,000  Level
Fri 05:48:17 PM 46.9667 -103.7330 278° West 420 483 34,000  Level
Fri 05:49:17 PM 46.9833 -103.9000 278° West 420 483 34,000  Level
Fri 05:50:17 PM 47.0000 -104.0670 270° West 420 483 34,000  Level
Fri 05:51:16 PM 47.0000 -104.2330 278° West 425 489 34,000  Level
Fri 05:52:17 PM 47.0167 -104.4000 278° West 420 483 34,000  Level
Fri 05:53:17 PM 47.0333 -104.5670 278° West 414 476 34,000  Level
Fri 05:54:16 PM 47.0500 -104.7330 278° West 424 488 34,000  Level
Fri 05:55:17 PM 47.0667 -104.9000 278° West 424 488 34,000  Level
Fri 05:56:16 PM 47.0833 -105.0670 278° West 419 482 34,000  Level
Fri 05:57:16 PM 47.1000 -105.2330 278° West 419 482 34,000  Level
Fri 05:58:16 PM 47.1167 -105.4000 270° West 419 482 34,000  Level
Fri 05:59:16 PM 47.1167 -105.5670 278° West 419 482 34,000  Level
Fri 06:00:16 PM 47.1333 -105.7330 278° West 424 488 34,000  Level
Fri 06:01:16 PM 47.1500 -105.9000 278° West 419 482 34,000  Level
Fri 06:02:16 PM 47.1667 -106.0670 279° West 419 482 34,000  Level
Fri 06:03:16 PM 47.1833 -106.2170 270° West 419 482 34,000  Level
Fri 06:04:16 PM 47.1833 -106.3830 278° West 419 482 34,000  Level
Fri 06:05:16 PM 47.2000 -106.5500 278° West 408 470 34,000  Level
Fri 06:06:16 PM 47.2167 -106.7170 278° West 408 470 34,000  Level
Fri 06:07:16 PM 47.2333 -106.8830 270° West 408 470 34,000  Level
Fri 06:08:16 PM 47.2333 -107.0500 278° West 413 475 34,000  Level
Fri 06:09:16 PM 47.2500 -107.2170 278° West 413 475 34,000  Level
Fri 06:10:16 PM 47.2667 -107.3830 270° West 413 475 34,000  Level
Fri 06:11:16 PM 47.2667 -107.5500 278° West 408 470 34,000  Level
Fri 06:12:16 PM 47.2833 -107.7170 279° West 408 470 34,000  Level
Fri 06:13:16 PM 47.3000 -107.8670 270° West 408 470 34,000  Level
Fri 06:14:16 PM 47.3000 -108.0330 278° West 408 470 34,000  Level
Fri 06:15:17 PM 47.3167 -108.2000 270° West 408 470 34,000  Level
Fri 06:16:17 PM 47.3167 -108.3830 278° West 414 476 34,000 1,000 Level
Fri 06:17:17 PM 47.3333 -108.5500 278° West 419 482 36,000 353 Climbing
Fri 06:18:16 PM 47.3500 -108.7170 270° West 419 482 34,700 -252 Descending
Fri 06:19:16 PM 47.3500 -108.8670 270° West 405 466 35,500 645 Climbing
Fri 06:20:17 PM 47.3500 -109.0170 279° West 392 451 36,000 248 Climbing
Fri 06:21:17 PM 47.3667 -109.1830 270° West 387 445 36,000  Level
Fri 06:22:17 PM 47.3667 -109.3330 278° West 387 445 36,000  Level
Fri 06:23:17 PM 47.3833 -109.5000 270° West 387 445 36,000  Level
Fri 06:24:17 PM 47.3833 -109.6500 278° West 387 445 36,000  Level
Fri 06:25:16 PM 47.4000 -109.8170 270° West 387 445 36,000  Level
Fri 06:26:16 PM 47.4000 -109.9670 270° West 387 445 36,000  Level
Fri 06:27:16 PM 47.4000 -110.1330 279° West 387 445 36,000  Level
Fri 06:28:17 PM 47.4167 -110.2830 270° West 387 445 36,000  Level
Fri 06:29:16 PM 47.4167 -110.4500 270° West 387 445 36,000  Level
Fri 06:30:16 PM 47.4167 -110.6000 278° West 387 445 36,000  Level
Fri 06:31:17 PM 47.4333 -110.7670 270° West 387 445 36,000  Level
Fri 06:32:16 PM 47.4333 -110.9170 270° West 387 445 36,000  Level
Fri 06:33:17 PM 47.4333 -111.0830 270° West 387 445 36,000  Level
Fri 06:34:16 PM 47.4333 -111.2330 278° West 387 445 36,000  Level
Fri 06:35:16 PM 47.4500 -111.4000 270° West 387 445 36,000  Level
Fri 06:36:16 PM 47.4500 -111.5500 270° West 387 445 36,000  Level
Fri 06:37:16 PM 47.4500 -111.7000 278° West 382 440 36,000  Level
Fri 06:38:16 PM 47.4667 -111.8670 270° West 382 440 36,000  Level
Fri 06:39:16 PM 47.4667 -112.0170 270° West 382 440 36,000  Level
Fri 06:40:16 PM 47.4667 -112.1670 270° West 382 440 36,000  Level
Fri 06:41:16 PM 47.4667 -112.3330 270° West 382 440 36,000  Level
Fri 06:42:17 PM 47.4667 -112.4830 270° West 387 445 36,000  Level
Fri 06:43:16 PM 47.4667 -112.6330 270° West 387 445 36,000  Level
Fri 06:44:16 PM 47.4667 -112.8000 270° West 381 438 36,000  Level
Fri 06:45:16 PM 47.4667 -112.9500 270° West 381 438 36,000  Level
Fri 06:46:16 PM 47.4667 -113.1000 270° West 381 438 36,000  Level
Fri 06:47:16 PM 47.4667 -113.2500 270° West 381 438 36,000  Level
Fri 06:48:16 PM 47.4667 -113.4170 270° West 381 438 36,000  Level
Fri 06:49:16 PM 47.4667 -113.5670 270° West 381 438 36,000  Level
Fri 06:50:16 PM 47.4667 -113.7330 270° West 381 438 36,000  Level
Fri 06:51:16 PM 47.4667 -113.8830 270° West 381 438 36,000  Level
Fri 06:52:38 PM 47.4667 -114.1000 270° West 376 433 36,000  Level
Fri 06:53:38 PM 47.4667 -114.2500 270° West 376 433 36,000  Level
Fri 06:54:38 PM 47.4667 -114.4000 270° West 376 433 36,000  Level
Fri 06:55:38 PM 47.4667 -114.5500 270° West 376 433 36,000  Level
Fri 06:56:38 PM 47.4667 -114.7170 270° West 381 438 36,000  Level
Fri 06:57:38 PM 47.4667 -114.8670 270° West 386 444 36,000  Level
Fri 06:58:38 PM 47.4667 -115.0170 270° West 386 444 36,000  Level
Fri 06:59:38 PM 47.4667 -115.1670 270° West 386 444 36,000  Level
Fri 07:00:38 PM 47.4667 -115.3170 270° West 386 444 36,000  Level
Fri 07:01:38 PM 47.4667 -115.4670 262° West 381 438 36,000  Level
Fri 07:02:38 PM 47.4500 -115.6330 279° West 381 438 36,000  Level
Fri 07:03:38 PM 47.4667 -115.7830 270° West 376 433 36,000  Level
Fri 07:04:38 PM 47.4667 -115.9330 279° West 371 427 36,000  Level
Fri 07:05:38 PM 47.4833 -116.0830 279° West 366 421 36,000  Level
Fri 07:06:38 PM 47.5000 -116.2330 279° West 371 427 36,000  Level
Fri 07:07:38 PM 47.5167 -116.3830 279° West 371 427 36,000  Level
Fri 07:08:38 PM 47.5333 -116.5330 279° West 371 427 36,000  Level
Fri 07:09:38 PM 47.5500 -116.6830 279° West 371 427 36,000  Level
Fri 07:10:38 PM 47.5667 -116.8330 278° West 371 427 36,000  Level
Fri 07:11:38 PM 47.5833 -117.0000 270° West 387 445 36,000  Level
Fri 07:12:38 PM 47.5833 -117.1500 279° West 382 440 36,000  Level
Fri 07:13:38 PM 47.6000 -117.3000 279° West 382 440 36,000  Level
Fri 07:14:38 PM 47.6167 -117.4500 278° West 388 447 36,000  Level
Fri 07:15:38 PM 47.6333 -117.6170 270° West 388 447 36,000  Level
Fri 07:16:38 PM 47.6333 -117.7670 279° West 388 447 36,000  Level
Fri 07:17:38 PM 47.6500 -117.9330 279° West 388 447 36,000  Level
Fri 07:18:38 PM 47.6667 -118.0830 279° West 388 447 36,000  Level
Fri 07:19:38 PM 47.6833 -118.2330 270° West 388 447 36,000  Level
Fri 07:20:38 PM 47.6833 -118.4000 317° Northwest 388 447 36,000  Level
Fri 07:21:38 PM 47.7667 -118.5170 334° Northwest 388 447 36,000  Level
Fri 07:22:38 PM 47.8833 -118.6000 337° Northwest 414 476 36,000  Level
Fri 07:23:38 PM 48.0167 -118.6830 334° Northwest 443 510 36,000  Level
Fri 07:24:38 PM 48.1333 -118.7670 280° West 456 525 36,000  Level
Fri 07:25:38 PM 48.1500 -118.9170 261° West 380 437 36,000  Level
Fri 07:26:38 PM 48.1333 -119.0670 261° West 340 391 36,000  Level
Fri 07:27:38 PM 48.1167 -119.2170 261° West 354 407 36,000  Level
Fri 07:28:38 PM 48.1000 -119.3670 261° West 365 420 36,000 -750 Level
Fri 07:29:38 PM 48.0833 -119.5170 252° West 365 420 34,500 -1,900 Descending
Fri 07:30:38 PM 48.0500 -119.6670 261° West 371 427 32,200 -2,450 Descending
Fri 07:31:38 PM 48.0333 -119.8170 261° West 371 427 29,600 -2,250 Descending
Fri 07:32:38 PM 48.0167 -119.9670 261° West 371 427 27,700 -1,850 Descending
Fri 07:33:38 PM 48.0000 -120.1170 261° West 371 427 25,900 -1,250 Descending
Fri 07:34:38 PM 47.9833 -120.2670 261° West 371 427 25,200 -600 Descending
Fri 07:35:38 PM 47.9667 -120.4170 249° West 371 427 24,700 -1,500 Descending
Fri 07:36:38 PM 47.9333 -120.5500 261° West 366 421 22,200 -2,100 Descending
Fri 07:37:38 PM 47.9167 -120.7000 259° West 361 415 20,500 -1,850 Descending
Fri 07:38:38 PM 47.9000 -120.8330 260° West 348 400 18,500 -1,950 Descending
Fri 07:39:38 PM 47.8833 -120.9670 260° West 342 394 16,600 -1,850 Descending
Fri 07:40:38 PM 47.8667 -121.1000 281° West 342 394 14,800 -1,700 Descending
Fri 07:41:38 PM 47.8833 -121.2330 270° West 331 381 13,200 -1,350 Descending
Fri 07:42:38 PM 47.8833 -121.3500 282° West 320 368 12,100 -950 Descending
Fri 07:43:38 PM 47.9000 -121.4670 270° West 304 350 11,300 11,950 Descending
Fri 07:44:38 PM 47.9000 -121.5830 258° West 304 350 36,000 -400 Climbing
Fri 07:45:38 PM 47.8833 -121.7000 233° Southwest 284 327 10,500 -13,050 Descending
Fri 07:46:38 PM 47.8500 -121.7670 222° Southwest 239 275 9,900 -1,000 Descending
Fri 07:47:38 PM 47.8000 -121.8330 195° South 234 269 8,500 -1,350 Descending
Fri 07:48:38 PM 47.7167 -121.8670 198° South 239 275 7,200 -1,200 Descending
Fri 07:49:38 PM 47.6500 -121.9000 190° South 251 289 6,100 -900 Descending
Fri 07:50:38 PM 47.5833 -121.9170 207° Southwest 261 300 5,400 -550 Descending
Fri 07:51:38 PM 47.5167 -121.9670 214° Southwest 259 298 5,000 -150 Descending
Fri 07:52:38 PM 47.4667 -122.0170 225° Southwest 239 275 5,100 -450 Climbing
Fri 07:53:38 PM 47.4333 -122.0670 225° Southwest 212 244 4,100 -950 Descending
Fri 07:54:38 PM 47.4000 -122.1170 204° Southwest 199 229 3,200 -700 Descending
Fri 07:55:38 PM 47.3500 -122.1500 318° Northwest 185 213 2,700 -550 Descending
Fri 07:56:38 PM 47.4000 -122.2170 326° Northwest 132 152 2,100 -350 Descending
Fri 07:57:38 PM 47.4333 -122.2500 347° North 121 139 2,000 -450 Descending
Fri 07:58:38 PM 47.4833 -122.2670 342° North 126 145 1,200 -800 Descending
Fri 07:59:38 PM 47.5167 -122.2830 325° Northwest 126 145 400 -550 Descending
Fri 08:00:38 PM 47.5500 -122.3170 325° Northwest 126 145 100 -300 Descending

Login

Don't have an account? Register now (free) for customized features, flight alerts, and more!